createdAt,value
2019-02-16T00:00:45.426Z,28.95
2019-02-16T00:01:49.515Z,32.48
2019-02-16T00:02:53.612Z,33.05
2019-02-16T00:03:57.545Z,35.95
2019-02-16T00:05:01.675Z,31.73
2019-02-16T00:06:05.842Z,33.70
2019-02-16T00:07:09.699Z,33.83
2019-02-16T00:08:13.591Z,34.88
2019-02-16T00:09:17.490Z,29.92
2019-02-16T00:10:21.926Z,37.48
2019-02-16T00:11:26.132Z,33.33
2019-02-16T00:12:30.339Z,33.15
2019-02-16T00:13:34.663Z,30.08
2019-02-16T00:14:38.803Z,34.45
2019-02-16T00:15:42.612Z,33.10
2019-02-16T00:16:46.600Z,34.73
2019-02-16T00:17:50.483Z,37.70
2019-02-16T00:18:54.382Z,37.65
2019-02-16T00:19:58.448Z,38.90
2019-02-16T00:21:04.257Z,43.33
2019-02-16T00:22:08.957Z,37.65
2019-02-16T00:23:13.239Z,35.40
2019-02-16T00:24:17.114Z,39.55
2019-02-16T00:25:21.238Z,34.03
2019-02-16T00:26:25.047Z,35.55
2019-02-16T00:27:28.859Z,29.48
2019-02-16T00:28:32.729Z,20.82
2019-02-16T00:29:36.799Z,29.32
2019-02-16T00:30:41.139Z,34.38
2019-02-16T00:31:45.326Z,31.55
2019-02-16T00:32:50.107Z,32.13
2019-02-16T00:33:54.497Z,30.48
2019-02-16T00:34:58.629Z,36.63
2019-02-16T00:36:02.438Z,37.48
2019-02-16T00:37:06.315Z,35.73
2019-02-16T00:38:10.486Z,43.52
2019-02-16T00:39:14.302Z,40.70
2019-02-16T00:40:18.188Z,41.37
2019-02-16T00:41:22.357Z,38.08
2019-02-16T00:42:26.307Z,39.03
2019-02-16T00:43:30.683Z,41.08
2019-02-16T00:44:34.503Z,39.35
2019-02-16T00:45:38.379Z,40.20
2019-02-16T00:46:42.184Z,37.63
2019-02-16T00:47:46.232Z,33.85
2019-02-16T00:48:50.786Z,37.00
2019-02-16T00:49:54.605Z,36.58
2019-02-16T00:50:58.412Z,34.83
2019-02-16T00:52:02.221Z,40.73
2019-02-16T00:53:06.104Z,34.08
2019-02-16T00:54:09.907Z,38.60
2019-02-16T00:55:13.987Z,34.23
2019-02-16T00:56:17.800Z,35.88
2019-02-16T00:57:21.875Z,35.50
2019-02-16T00:58:25.926Z,37.17
2019-02-16T00:59:30.003Z,33.40
2019-02-16T01:00:33.898Z,38.33
2019-02-16T01:01:37.762Z,33.73
2019-02-16T01:02:42.059Z,33.65
2019-02-16T01:03:46.127Z,37.70
2019-02-16T01:04:50.275Z,34.20
2019-02-16T01:05:54.088Z,33.78
2019-02-16T01:06:58.277Z,33.67
2019-02-16T01:08:02.756Z,34.67
2019-02-16T01:09:06.987Z,33.90
2019-02-16T01:10:10.934Z,33.80
2019-02-16T01:11:15.128Z,33.92
2019-02-16T01:12:18.952Z,34.00
2019-02-16T01:13:22.770Z,36.35
2019-02-16T01:14:27.101Z,32.85
2019-02-16T01:15:31.253Z,31.95
2019-02-16T01:16:35.076Z,35.85
2019-02-16T01:17:38.890Z,26.82
2019-02-16T01:18:42.706Z,30.75
2019-02-16T01:19:46.594Z,33.25
2019-02-16T01:20:50.425Z,28.65
2019-02-16T01:21:54.311Z,28.40
2019-02-16T01:22:58.125Z,36.08
2019-02-16T01:24:02.322Z,31.07
2019-02-16T01:25:07.023Z,25.75
2019-02-16T01:26:11.216Z,28.70
2019-02-16T01:27:15.421Z,29.77
2019-02-16T01:28:19.524Z,29.10
2019-02-16T01:29:23.409Z,30.08
2019-02-16T01:30:27.235Z,29.15
2019-02-16T01:31:31.048Z,32.63
2019-02-16T01:32:34.923Z,29.52
2019-02-16T01:33:38.991Z,32.38
2019-02-16T01:34:43.118Z,32.33
2019-02-16T01:35:47.323Z,34.60
2019-02-16T01:36:51.216Z,30.20
2019-02-16T01:37:55.031Z,27.50
2019-02-16T01:38:58.849Z,29.32
2019-02-16T01:40:02.669Z,31.85
2019-02-16T01:41:06.819Z,34.30
2019-02-16T01:42:11.024Z,31.87
2019-02-16T01:43:14.839Z,34.70
2019-02-16T01:47:13.428Z,26.35
2019-02-16T01:48:17.634Z,33.95
2019-02-16T01:49:21.834Z,31.82
2019-02-16T01:50:26.058Z,32.55
2019-02-16T01:51:32.213Z,23.65
2019-02-16T01:52:36.087Z,33.83
2019-02-16T01:53:40.335Z,28.70
2019-02-16T01:54:44.511Z,31.57
2019-02-16T01:55:48.630Z,30.75
2019-02-16T01:56:53.020Z,28.27
2019-02-16T01:57:57.382Z,26.70
2019-02-16T01:59:01.314Z,33.95
2019-02-16T02:00:05.698Z,29.63
2019-02-16T02:01:10.150Z,32.42
2019-02-16T02:02:14.331Z,33.40
2019-02-16T02:03:18.334Z,31.57
2019-02-16T02:04:22.187Z,28.73
2019-02-16T02:05:26.049Z,28.10
2019-02-16T02:06:29.921Z,27.30
2019-02-16T02:07:34.159Z,27.85
2019-02-16T02:08:38.169Z,30.00
2019-02-16T02:09:42.187Z,31.35
2019-02-16T02:10:46.121Z,29.65
2019-02-16T02:11:50.388Z,26.90
2019-02-16T02:12:54.322Z,31.45
2019-02-16T02:13:58.256Z,30.70
2019-02-16T02:15:02.639Z,29.52
2019-02-16T02:16:06.491Z,38.05
2019-02-16T02:17:10.439Z,28.90
2019-02-16T02:18:14.997Z,30.32
2019-02-16T02:19:18.926Z,28.98
2019-02-16T02:20:24.824Z,31.12
2019-02-16T02:21:29.041Z,30.15
2019-02-16T02:22:32.970Z,30.57
2019-02-16T02:23:37.156Z,37.25
2019-02-16T02:24:41.644Z,34.75
2019-02-16T02:25:45.569Z,35.98
2019-02-16T02:26:49.450Z,29.63
2019-02-16T02:27:53.307Z,31.07
2019-02-16T02:28:57.312Z,33.75
2019-02-16T02:30:01.876Z,39.45
2019-02-16T02:31:05.790Z,34.53
2019-02-16T02:32:10.017Z,35.13
2019-02-16T02:33:14.271Z,37.33
2019-02-16T02:34:18.887Z,31.62
2019-02-16T02:35:22.888Z,31.75
2019-02-16T02:36:27.197Z,30.88
2019-02-16T02:37:31.076Z,30.08
2019-02-16T02:38:35.511Z,34.75
2019-02-16T02:39:39.443Z,35.10
2019-02-16T02:40:43.706Z,27.07
2019-02-16T02:41:47.917Z,30.75
2019-02-16T02:42:52.125Z,29.07
2019-02-16T02:43:56.419Z,32.03
2019-02-16T02:45:00.429Z,33.20
2019-02-16T02:46:04.668Z,31.02
2019-02-16T02:47:08.595Z,34.23
2019-02-16T02:48:12.544Z,31.45
2019-02-16T02:49:16.802Z,35.35
2019-02-16T02:50:20.989Z,41.88
2019-02-16T02:51:24.983Z,37.00
2019-02-16T02:52:29.256Z,42.45
2019-02-16T02:53:33.268Z,41.50
2019-02-16T02:54:37.796Z,42.78
2019-02-16T02:55:41.725Z,37.95
2019-02-16T02:56:45.909Z,36.00
2019-02-16T02:57:50.400Z,35.30
2019-02-16T02:58:55.000Z,45.08
2019-02-16T02:59:59.259Z,38.23
2019-02-16T03:01:03.511Z,40.33
2019-02-16T03:02:07.451Z,35.13
2019-02-16T03:03:11.623Z,37.88
2019-02-16T03:04:15.628Z,32.58
2019-02-16T03:05:19.557Z,37.45
2019-02-16T03:06:23.488Z,37.38
2019-02-16T03:07:27.667Z,33.38
2019-02-16T03:08:32.191Z,38.53
2019-02-16T03:09:36.195Z,33.48
2019-02-16T03:10:40.734Z,32.35
2019-02-16T03:11:44.751Z,36.50
2019-02-16T03:12:49.199Z,36.48
2019-02-16T03:13:53.141Z,31.45
2019-02-16T03:14:57.307Z,34.63
2019-02-16T03:16:01.487Z,36.15
2019-02-16T03:17:05.748Z,37.10
2019-02-16T03:18:09.988Z,31.05
2019-02-16T03:19:13.916Z,38.78
2019-02-16T03:20:18.191Z,37.63
2019-02-16T03:21:22.200Z,34.98
2019-02-16T03:22:46.728Z,34.60
2019-02-16T03:23:51.287Z,36.42
2019-02-16T03:24:56.461Z,33.25
2019-02-16T03:26:33.512Z,34.73
2019-02-16T03:28:23.572Z,35.90
2019-02-16T03:29:34.843Z,44.05
2019-02-16T03:31:23.811Z,44.95
2019-02-16T03:33:03.701Z,36.77
2019-02-16T03:34:22.042Z,36.30
2019-02-16T03:36:19.096Z,35.90
2019-02-16T03:37:50.877Z,32.98
2019-02-16T03:39:08.339Z,33.23
2019-02-16T03:40:12.393Z,35.48
2019-02-16T03:41:16.620Z,33.40
2019-02-16T03:42:21.319Z,32.03
2019-02-16T03:43:25.687Z,35.45
2019-02-16T03:44:30.739Z,36.88
2019-02-16T03:45:34.782Z,42.25
2019-02-16T03:46:39.062Z,24.47
2019-02-16T03:47:43.414Z,33.63
2019-02-16T03:48:47.274Z,31.20
2019-02-16T03:49:51.576Z,29.23
2019-02-16T03:50:55.947Z,35.33
2019-02-16T03:52:00.298Z,32.28
2019-02-16T03:53:04.240Z,37.50
2019-02-16T03:54:08.409Z,32.73
2019-02-16T03:55:12.712Z,33.50
2019-02-16T03:56:16.976Z,33.90
2019-02-16T03:57:20.922Z,34.65
2019-02-16T03:58:25.426Z,35.30
2019-02-16T03:59:29.558Z,34.18
2019-02-16T04:00:33.797Z,37.78
2019-02-16T04:01:38.007Z,36.73
2019-02-16T04:02:42.372Z,37.30
2019-02-16T04:03:46.559Z,35.60
2019-02-16T04:04:50.943Z,37.60
2019-02-16T04:05:55.042Z,38.25
2019-02-16T04:06:58.976Z,34.15
2019-02-16T04:08:02.904Z,33.65
2019-02-16T04:09:07.488Z,39.03
2019-02-16T04:10:12.260Z,37.17
2019-02-16T04:11:16.692Z,27.98
2019-02-16T04:12:20.626Z,36.80
2019-02-16T04:13:24.494Z,34.90
2019-02-16T04:14:28.668Z,37.67
2019-02-16T04:15:32.692Z,35.38
2019-02-16T04:16:36.785Z,31.00
2019-02-16T04:17:40.878Z,34.40
2019-02-16T04:18:44.884Z,37.93
2019-02-16T04:19:48.811Z,39.25
2019-02-16T04:20:52.757Z,39.35
2019-02-16T04:21:56.928Z,39.15
2019-02-16T04:23:01.104Z,38.65
2019-02-16T04:24:05.362Z,38.15
2019-02-16T04:25:09.383Z,39.98
2019-02-16T04:26:13.556Z,44.48
2019-02-16T04:27:17.740Z,32.03
2019-02-16T04:28:21.681Z,37.20
2019-02-16T04:29:25.796Z,37.90
2019-02-16T04:30:29.668Z,37.45
2019-02-16T04:31:33.614Z,39.88
2019-02-16T04:32:37.727Z,36.58
2019-02-16T04:33:41.898Z,35.90
2019-02-16T04:34:45.759Z,37.78
2019-02-16T04:35:49.775Z,36.08
2019-02-16T04:36:53.785Z,31.05
2019-02-16T04:37:57.645Z,38.20
2019-02-16T04:39:01.587Z,25.48
2019-02-16T04:40:05.886Z,39.30
2019-02-16T04:41:09.907Z,31.00
2019-02-16T04:42:14.134Z,30.50
2019-02-16T04:43:18.582Z,34.27
2019-02-16T04:44:22.897Z,38.35
2019-02-16T04:45:27.410Z,36.25
2019-02-16T04:46:32.124Z,36.28
2019-02-16T04:47:36.839Z,34.03
2019-02-16T04:48:41.147Z,28.02
2019-02-16T04:49:45.357Z,30.90
2019-02-16T04:50:49.665Z,35.95
2019-02-16T04:51:53.602Z,30.32
2019-02-16T04:52:57.783Z,29.40
2019-02-16T04:54:01.649Z,31.97
2019-02-16T04:55:06.316Z,36.35
2019-02-16T04:56:10.587Z,38.78
2019-02-16T04:57:14.896Z,34.43
2019-02-16T04:58:19.103Z,33.63
2019-02-16T04:59:23.337Z,40.90
2019-02-16T05:00:27.255Z,38.60
2019-02-16T05:01:31.825Z,32.40
2019-02-16T05:02:35.693Z,32.67
2019-02-16T05:03:39.782Z,39.75
2019-02-16T05:04:43.718Z,37.80
2019-02-16T05:05:47.655Z,43.28
2019-02-16T05:06:51.631Z,40.38
2019-02-16T05:07:55.552Z,45.38
2019-02-16T05:08:59.537Z,42.75
2019-02-16T05:10:03.831Z,37.28
2019-02-16T05:11:08.063Z,40.43
2019-02-16T05:12:12.238Z,39.98
2019-02-16T05:13:16.639Z,31.37
2019-02-16T05:14:21.060Z,38.05
2019-02-16T05:15:25.676Z,37.55
2019-02-16T05:16:29.986Z,39.25
2019-02-16T05:17:34.003Z,33.35
2019-02-16T05:18:37.990Z,26.85
2019-02-16T05:19:42.202Z,29.75
2019-02-16T05:20:46.207Z,38.30
2019-02-16T05:21:50.279Z,33.20
2019-02-16T05:22:54.141Z,29.77
2019-02-16T05:23:58.369Z,38.45
2019-02-16T05:25:02.317Z,36.35
2019-02-16T05:26:06.226Z,37.98
2019-02-16T05:27:10.177Z,44.50
2019-02-16T05:28:14.376Z,39.78
2019-02-16T05:29:18.484Z,50.50
2019-02-16T05:30:22.507Z,46.08
2019-02-16T05:31:26.637Z,38.30
2019-02-16T05:32:31.006Z,39.73
2019-02-16T05:33:34.952Z,40.35
2019-02-16T05:34:39.227Z,39.90
2019-02-16T05:35:43.397Z,45.65
2019-02-16T05:36:48.126Z,46.37
2019-02-16T05:37:52.222Z,45.25
2019-02-16T05:38:56.409Z,102.78
2019-02-16T05:40:00.418Z,59.35
2019-02-16T05:41:04.414Z,63.52
2019-02-16T05:42:08.267Z,83.67
2019-02-16T05:43:12.712Z,82.20
2019-02-16T05:44:16.642Z,76.28
2019-02-16T05:45:20.568Z,87.02
2019-02-16T05:46:24.827Z,94.13
2019-02-16T05:47:29.252Z,82.82
2019-02-16T05:48:33.204Z,70.97
2019-02-16T05:49:37.904Z,74.62
2019-02-16T05:50:41.835Z,71.95
2019-02-16T05:51:46.000Z,72.05
2019-02-16T05:52:54.418Z,125.42
2019-02-16T05:53:56.049Z,130.70
2019-02-16T05:55:00.328Z,264.45
2019-02-16T05:56:04.982Z,164.93
2019-02-16T05:57:09.186Z,162.75
2019-02-16T05:58:13.550Z,141.25
2019-02-16T05:59:17.496Z,185.15
2019-02-16T06:00:25.185Z,147.43
2019-02-16T06:01:29.695Z,73.60
2019-02-16T06:02:34.003Z,70.85
2019-02-16T06:03:38.136Z,86.30
2019-02-16T06:04:42.347Z,93.72
2019-02-16T06:05:46.278Z,80.15
2019-02-16T06:06:50.308Z,88.65
2019-02-16T06:07:54.253Z,67.70
2019-02-16T06:08:58.231Z,79.12
2019-02-16T06:10:02.146Z,64.22
2019-02-16T06:11:06.418Z,56.50
2019-02-16T06:12:11.164Z,71.70
2019-02-16T06:13:15.330Z,64.65
2019-02-16T06:14:19.490Z,78.57
2019-02-16T06:15:23.574Z,69.17
2019-02-16T06:16:27.449Z,64.37
2019-02-16T06:17:31.818Z,97.78
2019-02-16T06:18:36.275Z,80.57
2019-02-16T06:19:40.479Z,184.70
2019-02-16T06:20:44.680Z,100.38
2019-02-16T06:21:48.995Z,136.43
2019-02-16T06:22:53.300Z,129.53
2019-02-16T06:23:57.912Z,178.75
2019-02-16T06:25:01.829Z,139.65
2019-02-16T06:26:05.937Z,175.60
2019-02-16T06:27:10.225Z,124.78
2019-02-16T06:28:14.427Z,175.00
2019-02-16T06:29:18.942Z,140.07
2019-02-16T06:30:23.147Z,129.42
2019-02-16T06:31:27.089Z,177.27
2019-02-16T06:32:31.240Z,106.07
2019-02-16T06:33:35.789Z,107.22
2019-02-16T06:34:40.116Z,154.32
2019-02-16T06:35:48.121Z,102.38
2019-02-16T06:36:52.578Z,74.05
2019-02-16T06:37:57.108Z,132.87
2019-02-16T06:39:01.311Z,111.42
2019-02-16T06:40:05.713Z,103.07
2019-02-16T06:41:09.651Z,101.82
2019-02-16T06:42:13.517Z,158.87
2019-02-16T06:43:17.466Z,102.10
2019-02-16T06:44:21.495Z,84.17
2019-02-16T06:45:25.512Z,177.15
2019-02-16T06:46:29.382Z,111.30
2019-02-16T06:47:33.414Z,134.90
2019-02-16T06:48:37.336Z,175.72
2019-02-16T06:49:41.660Z,106.27
2019-02-16T06:50:45.671Z,203.98
2019-02-16T06:51:50.063Z,233.75
2019-02-16T06:52:54.006Z,106.80
2019-02-16T06:53:57.946Z,86.57
2019-02-16T06:55:02.132Z,84.97
2019-02-16T06:56:20.050Z,97.12
2019-02-16T06:57:29.280Z,63.48
2019-02-16T06:58:33.491Z,58.63
2019-02-16T06:59:37.364Z,75.55
2019-02-16T07:00:41.591Z,74.45
2019-02-16T07:01:45.453Z,71.42
2019-02-16T07:02:49.821Z,81.35
2019-02-16T07:03:53.932Z,79.45
2019-02-16T07:04:58.386Z,142.13
2019-02-16T07:06:02.566Z,83.87
2019-02-16T07:07:07.495Z,91.85
2019-02-16T07:08:11.437Z,52.38
2019-02-16T07:09:15.359Z,54.42
2019-02-16T07:10:19.563Z,41.30
2019-02-16T07:11:24.068Z,53.33
2019-02-16T07:12:28.167Z,54.33
2019-02-16T07:13:32.282Z,42.40
2019-02-16T07:14:36.471Z,34.10
2019-02-16T07:15:40.494Z,49.80
2019-02-16T07:16:56.422Z,49.35
2019-02-16T07:18:26.003Z,54.60
2019-02-16T07:19:39.513Z,65.25
2019-02-16T07:20:43.889Z,37.67
2019-02-16T07:21:48.092Z,56.18
2019-02-16T07:22:51.951Z,55.08
2019-02-16T07:23:56.299Z,46.65
2019-02-16T07:25:00.571Z,41.60
2019-02-16T07:26:05.009Z,46.00
2019-02-16T07:27:09.242Z,41.15
2019-02-16T07:28:13.223Z,35.03
2019-02-16T07:29:17.232Z,46.48
2019-02-16T07:30:21.185Z,37.50
2019-02-16T07:31:25.540Z,32.95
2019-02-16T07:32:29.842Z,34.48
2019-02-16T07:33:33.778Z,40.67
2019-02-16T07:34:37.808Z,40.98
2019-02-16T07:35:41.755Z,33.45
2019-02-16T07:36:45.686Z,35.68
2019-02-16T07:37:49.568Z,34.53
2019-02-16T07:38:53.581Z,65.90
2019-02-16T07:39:58.051Z,37.05
2019-02-16T07:41:02.000Z,40.43
2019-02-16T07:42:06.015Z,49.00
2019-02-16T07:43:20.294Z,38.88
2019-02-16T07:44:43.299Z,41.85
2019-02-16T07:45:55.487Z,35.13
2019-02-16T07:47:10.054Z,16.17
2019-02-16T07:48:21.558Z,21.23
2019-02-16T07:49:30.971Z,32.17
2019-02-16T07:50:51.963Z,34.43
2019-02-16T07:52:05.870Z,37.25
2019-02-16T07:53:31.381Z,34.50
2019-02-16T07:54:46.297Z,34.73
2019-02-16T07:55:58.727Z,32.05
2019-02-16T07:57:07.503Z,41.98
2019-02-16T07:58:19.076Z,32.33
2019-02-16T07:59:34.515Z,37.30
2019-02-16T08:01:06.498Z,39.75
2019-02-16T08:02:29.664Z,38.78
2019-02-16T08:03:53.007Z,28.87
2019-02-16T08:05:19.266Z,38.55
2019-02-16T08:06:45.262Z,45.35
2019-02-16T08:07:58.955Z,43.58
2019-02-16T08:09:13.102Z,30.15
2019-02-16T08:10:41.115Z,55.58
2019-02-16T08:12:07.065Z,64.10
2019-02-16T08:13:33.434Z,54.67
2019-02-16T08:15:08.786Z,50.70
2019-02-16T08:16:18.471Z,54.53
2019-02-16T08:17:37.644Z,46.37
2019-02-16T08:19:07.450Z,52.35
2019-02-16T08:20:43.297Z,51.83
2019-02-16T08:21:57.762Z,41.40
2019-02-16T08:23:11.542Z,40.63
2019-02-16T08:24:49.910Z,45.90
2019-02-16T08:26:01.019Z,34.58
2019-02-16T08:27:13.565Z,44.75
2019-02-16T08:28:28.903Z,40.28
2019-02-16T08:29:40.711Z,40.73
2019-02-16T08:31:03.043Z,43.65
2019-02-16T08:32:22.474Z,46.85
2019-02-16T08:33:32.127Z,42.65
2019-02-16T08:34:46.022Z,39.73
2019-02-16T08:36:08.577Z,39.50
2019-02-16T08:37:50.207Z,41.83
2019-02-16T08:39:04.926Z,32.13
2019-02-16T08:40:34.327Z,37.75
2019-02-16T08:42:06.293Z,28.92
2019-02-16T08:43:18.374Z,34.65
2019-02-16T08:44:35.963Z,29.52
2019-02-16T08:45:49.415Z,24.27
2019-02-16T08:47:09.668Z,32.40
2019-02-16T08:48:20.130Z,38.48
2019-02-16T08:49:49.754Z,37.60
2019-02-16T08:51:03.787Z,33.63
2019-02-16T08:52:32.454Z,36.10
2019-02-16T08:54:00.083Z,38.28
2019-02-16T08:55:22.034Z,57.80
2019-02-16T08:56:54.307Z,37.63
2019-02-16T08:58:11.720Z,35.23
2019-02-16T08:59:29.112Z,66.22
2019-02-16T09:01:01.438Z,51.75
2019-02-16T09:02:24.736Z,54.38
2019-02-16T09:03:54.358Z,34.58
2019-02-16T09:05:23.573Z,34.20
2019-02-16T09:06:37.380Z,53.52
2019-02-16T09:07:58.677Z,34.60
2019-02-16T09:09:20.156Z,35.75
2019-02-16T09:10:50.279Z,35.92
2019-02-16T09:12:08.772Z,26.65
2019-02-16T09:13:23.731Z,31.73
2019-02-16T09:14:36.055Z,31.05
2019-02-16T09:15:52.605Z,34.60
2019-02-16T09:17:08.998Z,33.88
2019-02-16T09:18:31.262Z,27.65
2019-02-16T09:19:51.701Z,35.73
2019-02-16T09:21:14.480Z,29.75
2019-02-16T09:22:35.183Z,24.90
2019-02-16T09:24:04.048Z,28.90
2019-02-16T09:25:27.293Z,25.37
2019-02-16T09:26:48.471Z,27.85
2019-02-16T09:28:17.641Z,28.50
2019-02-16T09:29:39.790Z,26.23
2019-02-16T09:31:11.756Z,29.77
2019-02-16T09:32:37.458Z,18.73
2019-02-16T09:33:54.827Z,27.75
2019-02-16T09:35:23.678Z,30.92
2019-02-16T09:36:34.200Z,23.92
2019-02-16T09:37:57.193Z,26.17
2019-02-16T09:39:16.624Z,26.17
2019-02-16T09:40:48.892Z,28.55
2019-02-16T09:42:14.983Z,33.15
2019-02-16T09:43:31.403Z,27.42
2019-02-16T09:44:51.153Z,24.77
2019-02-16T09:46:12.086Z,26.48
2019-02-16T09:47:40.542Z,22.40
2019-02-16T09:48:51.988Z,19.85
2019-02-16T09:50:30.692Z,20.85
2019-02-16T09:51:47.227Z,27.15
2019-02-16T09:53:03.973Z,20.95
2019-02-16T09:54:27.354Z,27.60
2019-02-16T09:55:48.590Z,28.10
2019-02-16T09:57:08.731Z,50.43
2019-02-16T09:58:37.453Z,39.88
2019-02-16T09:59:51.621Z,30.92
2019-02-16T10:01:13.487Z,33.98
2019-02-16T10:02:28.291Z,30.37
2019-02-16T10:03:57.351Z,25.88
2019-02-16T10:05:10.243Z,26.30
2019-02-16T10:06:41.367Z,25.75
2019-02-16T10:08:04.546Z,26.65
2019-02-16T10:09:14.591Z,24.57
2019-02-16T10:10:37.316Z,26.70
2019-02-16T10:12:04.068Z,29.05
2019-02-16T10:13:34.791Z,28.25
2019-02-16T10:15:01.294Z,29.92
2019-02-16T10:16:13.946Z,25.77
2019-02-16T10:17:30.518Z,26.25
2019-02-16T10:18:44.633Z,26.20
2019-02-16T10:19:56.621Z,25.85
2019-02-16T10:21:10.353Z,31.23
2019-02-16T10:22:25.814Z,28.45
2019-02-16T10:23:44.296Z,26.35
2019-02-16T10:25:15.934Z,26.85
2019-02-16T10:26:50.919Z,24.00
2019-02-16T10:28:06.209Z,22.93
2019-02-16T10:29:23.438Z,25.20
2019-02-16T10:30:37.532Z,27.73
2019-02-16T10:31:59.416Z,22.42
2019-02-16T10:33:11.967Z,27.48
2019-02-16T10:34:34.647Z,27.00
2019-02-16T10:35:45.498Z,25.15
2019-02-16T10:37:01.485Z,29.40
2019-02-16T10:38:24.506Z,26.05
2019-02-16T10:39:47.780Z,28.45
2019-02-16T10:41:16.794Z,28.32
2019-02-16T10:42:33.532Z,30.52
2019-02-16T10:44:09.723Z,30.05
2019-02-16T10:45:29.981Z,26.73
2019-02-16T10:46:48.731Z,29.55
2019-02-16T10:48:01.223Z,33.02
2019-02-16T10:49:17.126Z,29.67
2019-02-16T10:50:52.363Z,31.68
2019-02-16T10:52:02.291Z,28.70
2019-02-16T10:53:24.538Z,30.17
2019-02-16T10:54:35.464Z,24.00
2019-02-16T10:56:01.762Z,27.55
2019-02-16T10:57:33.647Z,23.12
2019-02-16T10:59:05.954Z,22.20
2019-02-16T11:00:31.980Z,26.68
2019-02-16T11:01:42.252Z,26.85
2019-02-16T11:02:58.741Z,25.00
2019-02-16T11:04:21.975Z,27.50
2019-02-16T11:06:00.099Z,26.33
2019-02-16T11:07:23.107Z,24.80
2019-02-16T11:08:49.118Z,28.65
2019-02-16T11:09:58.243Z,24.70
2019-02-16T11:11:39.776Z,29.60
2019-02-16T11:12:56.759Z,30.95
2019-02-16T11:14:14.383Z,29.10
2019-02-16T11:15:34.020Z,41.28
2019-02-16T11:16:55.449Z,38.73
2019-02-16T11:18:18.986Z,32.25
2019-02-16T11:19:36.783Z,27.62
2019-02-16T11:21:07.939Z,28.98
2019-02-16T11:22:17.534Z,32.15
2019-02-16T11:23:58.530Z,32.50
2019-02-16T11:25:14.169Z,27.70
2019-02-16T11:26:29.206Z,28.52
2019-02-16T11:27:42.877Z,29.67
2019-02-16T11:29:11.817Z,27.67
2019-02-16T11:30:25.358Z,28.35
2019-02-16T11:31:51.810Z,26.85
2019-02-16T11:33:19.603Z,26.02
2019-02-16T11:35:01.156Z,27.22
2019-02-16T11:36:14.778Z,27.05
2019-02-16T11:37:50.283Z,24.95
2019-02-16T11:39:13.376Z,28.57
2019-02-16T11:40:30.921Z,29.98
2019-02-16T11:41:45.571Z,23.50
2019-02-16T11:43:01.323Z,26.30
2019-02-16T11:44:27.252Z,24.75
2019-02-16T11:45:56.624Z,27.90
2019-02-16T11:47:22.731Z,25.35
2019-02-16T11:48:48.177Z,24.90
2019-02-16T11:50:11.328Z,27.80
2019-02-16T11:51:25.057Z,22.25
2019-02-16T11:53:06.547Z,25.88
2019-02-16T11:54:20.673Z,23.55
2019-02-16T11:55:43.678Z,24.65
2019-02-16T11:57:08.716Z,28.83
2019-02-16T11:58:32.480Z,23.65
2019-02-16T12:00:13.775Z,22.25
2019-02-16T12:01:40.849Z,26.33
2019-02-16T12:02:54.816Z,28.47
2019-02-16T12:04:04.261Z,31.23
2019-02-16T12:05:26.491Z,25.85
2019-02-16T12:06:37.624Z,30.10
2019-02-16T12:08:01.816Z,34.90
2019-02-16T12:09:37.463Z,32.15
2019-02-16T12:10:51.409Z,29.00
2019-02-16T12:12:29.256Z,31.15
2019-02-16T12:13:51.011Z,26.77
2019-02-16T12:15:02.860Z,22.58
2019-02-16T12:16:34.873Z,24.50
2019-02-16T12:17:57.249Z,25.65
2019-02-16T12:19:25.843Z,24.30
2019-02-16T12:20:54.828Z,22.27
2019-02-16T12:22:32.844Z,22.82
2019-02-16T12:23:43.504Z,22.93
2019-02-16T12:25:09.091Z,23.05
2019-02-16T12:26:22.961Z,22.65
2019-02-16T12:27:36.271Z,23.45
2019-02-16T12:28:55.226Z,22.60
2019-02-16T12:30:07.085Z,23.52
2019-02-16T12:31:31.361Z,20.48
2019-02-16T12:32:53.591Z,20.45
2019-02-16T12:34:26.188Z,23.45
2019-02-16T12:35:41.453Z,24.52
2019-02-16T12:37:10.305Z,24.72
2019-02-16T12:38:22.803Z,23.87
2019-02-16T12:39:44.634Z,23.27
2019-02-16T12:41:01.252Z,22.27
2019-02-16T12:42:23.279Z,24.75
2019-02-16T12:43:56.256Z,24.67
2019-02-16T12:45:28.429Z,25.60
2019-02-16T12:46:44.605Z,23.30
2019-02-16T12:48:00.453Z,23.45
2019-02-16T12:49:26.309Z,25.77
2019-02-16T12:50:59.547Z,22.98
2019-02-16T12:52:22.842Z,21.30
2019-02-16T12:53:44.549Z,24.95
2019-02-16T12:55:14.239Z,23.35
2019-02-16T12:56:32.079Z,27.65
2019-02-16T12:57:44.901Z,22.37
2019-02-16T12:59:05.162Z,22.93
2019-02-16T13:00:26.911Z,28.83
2019-02-16T13:01:40.794Z,45.50
2019-02-16T13:02:55.695Z,39.30
2019-02-16T13:04:31.064Z,25.55
2019-02-16T13:05:50.856Z,26.87
2019-02-16T13:07:10.684Z,23.45
2019-02-16T13:08:20.493Z,25.88
2019-02-16T13:09:36.272Z,27.25
2019-02-16T13:11:15.092Z,25.62
2019-02-16T13:12:25.957Z,24.65
2019-02-16T13:13:44.210Z,22.55
2019-02-16T13:15:16.593Z,21.85
2019-02-16T13:16:27.092Z,23.15
2019-02-16T13:18:00.119Z,21.52
2019-02-16T13:19:22.292Z,22.42
2019-02-16T13:20:35.637Z,22.15
2019-02-16T13:22:04.535Z,21.42
2019-02-16T13:23:33.577Z,31.95
2019-02-16T13:24:49.867Z,26.80
2019-02-16T13:26:03.339Z,22.87
2019-02-16T13:27:26.266Z,22.40
2019-02-16T13:28:40.787Z,23.65
2019-02-16T13:30:01.840Z,23.75
2019-02-16T13:31:20.152Z,24.23
2019-02-16T13:32:53.519Z,24.63
2019-02-16T13:34:25.517Z,28.60
2019-02-16T13:35:47.075Z,24.52
2019-02-16T13:37:09.303Z,21.37
2019-02-16T13:38:35.232Z,25.68
2019-02-16T13:40:07.596Z,21.45
2019-02-16T13:41:30.774Z,21.15
2019-02-16T13:42:52.317Z,24.60
2019-02-16T13:44:06.604Z,21.85
2019-02-16T13:45:38.871Z,22.77
2019-02-16T13:47:08.456Z,23.57
2019-02-16T13:48:23.571Z,22.10
2019-02-16T13:49:42.292Z,20.05
2019-02-16T13:50:55.895Z,24.82
2019-02-16T13:52:24.107Z,20.85
2019-02-16T13:53:47.112Z,20.15
2019-02-16T13:54:56.333Z,22.60
2019-02-16T13:56:18.017Z,21.95
2019-02-16T13:57:41.239Z,20.37
2019-02-16T13:58:57.208Z,20.60
2019-02-16T14:00:38.789Z,22.37
2019-02-16T14:01:53.628Z,19.92
2019-02-16T14:03:03.261Z,21.40
2019-02-16T14:04:19.467Z,20.00
2019-02-16T14:05:39.029Z,23.32
2019-02-16T14:06:50.900Z,20.02
2019-02-16T14:08:12.735Z,22.32
2019-02-16T14:09:26.740Z,20.92
2019-02-16T14:10:49.751Z,24.27
2019-02-16T14:12:22.578Z,22.27
2019-02-16T14:13:48.820Z,24.82
2019-02-16T14:15:14.835Z,20.15
2019-02-16T14:16:37.931Z,21.82
2019-02-16T14:17:51.589Z,22.17
2019-02-16T14:18:55.606Z,22.95
2019-02-16T14:19:59.543Z,23.47
2019-02-16T14:21:03.820Z,21.90
2019-02-16T14:22:08.133Z,22.70
2019-02-16T14:23:12.152Z,22.30
2019-02-16T14:24:18.283Z,20.85
2019-02-16T14:25:27.443Z,21.33
2019-02-16T14:26:31.639Z,22.00
2019-02-16T14:27:36.016Z,21.85
2019-02-16T14:28:40.222Z,21.12
2019-02-16T14:29:44.431Z,21.15
2019-02-16T14:30:49.059Z,21.10
2019-02-16T14:31:53.071Z,20.37
2019-02-16T14:32:57.088Z,23.02
2019-02-16T14:34:01.075Z,20.48
2019-02-16T14:35:06.084Z,20.35
2019-02-16T14:36:09.956Z,21.40
2019-02-16T14:37:31.431Z,24.80
2019-02-16T14:38:40.979Z,22.50
2019-02-16T14:39:44.936Z,32.13
2019-02-16T14:40:49.333Z,35.20
2019-02-16T14:41:53.275Z,22.90
2019-02-16T14:42:57.428Z,20.10
2019-02-16T14:44:01.368Z,21.82
2019-02-16T14:45:05.755Z,22.52
2019-02-16T14:46:10.249Z,21.55
2019-02-16T14:47:14.183Z,20.92
2019-02-16T14:48:18.321Z,22.32
2019-02-16T14:49:22.179Z,21.35
2019-02-16T14:50:26.875Z,23.80
2019-02-16T14:51:30.894Z,21.57
2019-02-16T14:52:35.142Z,20.82
2019-02-16T14:53:39.161Z,20.57
2019-02-16T14:54:43.524Z,22.93
2019-02-16T14:55:53.864Z,23.55
2019-02-16T14:56:53.532Z,21.02
2019-02-16T14:57:57.756Z,22.42
2019-02-16T14:59:01.949Z,21.65
2019-02-16T15:00:06.494Z,20.32
2019-02-16T15:01:10.752Z,20.70
2019-02-16T15:02:15.008Z,23.50
2019-02-16T15:03:19.141Z,24.07
2019-02-16T15:04:23.000Z,27.32
2019-02-16T15:05:27.179Z,26.95
2019-02-16T15:06:31.120Z,28.70
2019-02-16T15:07:35.611Z,27.93
2019-02-16T15:08:39.809Z,26.10
2019-02-16T15:09:44.049Z,24.87
2019-02-16T15:10:48.227Z,24.43
2019-02-16T15:11:52.401Z,24.80
2019-02-16T15:12:56.662Z,29.75
2019-02-16T15:14:00.876Z,20.30
2019-02-16T15:15:05.180Z,21.17
2019-02-16T15:17:07.244Z,23.25
2019-02-16T15:18:11.347Z,24.37
2019-02-16T15:19:15.469Z,30.55
2019-02-16T15:20:19.403Z,20.40